Gdańsk Lech Wałęsa Airport

EPGD · 波美拉尼亞省, 波兰

罗盘
风向 的 风向 的 风向 到 风向 220° Gdańsk Lech Wałęsa Airport 11/29
风: 15 kt, 4 beaufort

4 kt

14 kt
改变
0 ft 1.000 2.000 3.000 4.000 5.000
CAVOK
METAR EPGD 090900Z 22015KT 190V270 CAVOK M02/M08 Q1032

METAR Gdańsk Lech Wałęsa Airport - EPGD/GDN

Gdańsk Lech Wałęsa Airport是,波兰中的大型机场。 该机场有一条跑道: 11/29. 该领域的国际民航组织标志是EPGD 它的国际航空运输协会代码是GDN.

这份报告是针对2023年2月9日 10:00, 当地时间在Gdańsk Lech Wałęsa Airport进行的。

机场观察

风向为220°,速度为15 kt。 风向在190°和270°之间变化。

天气为CAVOK。这意味着在5.000 ft或MSA(最低安全高度)以下(以较高者为准)以下没有云。这也意味着没有观测到积雨云或高耸的积云,可见度为10 km 或者更多或更高。此外,不会有雾,降雨或其他重要天气。

温度为-2 °C,阵风为-12 °C。 露点为-8 °C,相对湿度为64%。 海平面上的气压为1032 hPa (QNH)。

白天

今天,太阳从07:19升起,在16:40降落。 这适用于Gdańsk Lech Wałęsa Airport,世界夏令时可能有所不同。 当地时间与世界标准时间之间的时差为+1 小时。 当前,没有夏令时有效。

公司介绍

我们没有关于这个机场的公司信息。

体会

到Vliegles.nl去找飞行课程,跳伞和其他飞行体验。 浏览页面,了解Gdańsk Lech Wałęsa Airport附近所有可用的活动。 你也可以使用搜索功能来寻找你所在地附近的特定飞行课程、跳伞或其他飞行体验。

跑道

Id 标题 侧风 逆风 侧风 %
11/29 113°-293° 14 kt 4 kt 96 %

逆风成分最大的方向会被突出显示,并用于横风计算。 这并不一定意味着这个方向在使用。

温度 & 天气

温度 -2 °C
露点 -8 °C
相对湿度 64%
风寒 -12 °C
Kp-index 0 (0-9)

白天

日出
07:19
中午
12:00
日落
16:40 (6:33)

小工具

你想在你的网站上有一个关于Gdańsk Lech Wałęsa Airport的当前航空天气(METAR)的小部件吗?

显示HTML代码

我们和第三方通过cookies跟踪您在我们网站上的互联网行为。如果你继续,我们认为你同意我们的饼干政策